createdAt,value
2018-08-24T00:02:10.485Z,6.07
2018-08-24T00:04:38.949Z,6.40
2018-08-24T00:07:07.444Z,5.90
2018-08-24T00:09:35.894Z,6.10
2018-08-24T00:12:04.517Z,5.90
2018-08-24T00:14:32.970Z,6.43
2018-08-24T00:17:01.395Z,6.13
2018-08-24T00:19:29.901Z,6.13
2018-08-24T00:21:58.337Z,6.53
2018-08-24T00:24:26.822Z,6.20
2018-08-24T00:26:55.287Z,5.60
2018-08-24T00:29:23.786Z,5.93
2018-08-24T00:31:52.298Z,5.67
2018-08-24T00:34:20.710Z,5.90
2018-08-24T00:36:49.164Z,6.03
2018-08-24T00:39:17.721Z,5.83
2018-08-24T00:41:46.198Z,5.60
2018-08-24T00:44:14.686Z,5.87
2018-08-24T00:46:43.187Z,5.47
2018-08-24T00:49:11.661Z,5.13
2018-08-24T00:51:40.116Z,5.80
2018-08-24T00:54:08.574Z,5.97
2018-08-24T00:56:37.025Z,5.03
2018-08-24T00:59:05.569Z,5.77
2018-08-24T01:01:34.044Z,5.67
2018-08-24T01:04:02.535Z,5.50
2018-08-24T01:06:30.996Z,5.60
2018-08-24T01:08:59.471Z,5.80
2018-08-24T01:11:33.330Z,5.70
2018-08-24T01:14:01.810Z,5.80
2018-08-24T01:16:35.618Z,5.87
2018-08-24T01:19:04.123Z,6.20
2018-08-24T01:21:32.604Z,6.57
2018-08-24T01:24:02.170Z,6.10
2018-08-24T01:26:30.626Z,5.90
2018-08-24T01:28:59.132Z,6.10
2018-08-24T01:31:27.613Z,5.27
2018-08-24T01:33:56.085Z,6.83
2018-08-24T01:36:24.521Z,6.00
2018-08-24T01:38:52.988Z,5.83
2018-08-24T01:41:21.509Z,5.90
2018-08-24T01:43:50.040Z,5.60
2018-08-24T01:46:18.484Z,5.40
2018-08-24T01:48:46.966Z,5.60
2018-08-24T01:51:15.439Z,5.70
2018-08-24T01:53:43.893Z,5.80
2018-08-24T01:56:12.373Z,5.30
2018-08-24T01:58:40.847Z,5.83
2018-08-24T02:01:09.322Z,5.20
2018-08-24T02:03:37.830Z,5.37
2018-08-24T02:06:07.183Z,5.03
2018-08-24T02:08:36.911Z,4.87
2018-08-24T02:11:38.320Z,5.17
2018-08-24T02:14:12.119Z,5.03
2018-08-24T02:16:41.838Z,5.00
2018-08-24T02:19:12.001Z,5.23
2018-08-24T02:21:45.921Z,4.93
2018-08-24T02:24:14.791Z,5.00
2018-08-24T02:26:44.246Z,5.17
2018-08-24T02:29:12.767Z,4.80
2018-08-24T02:31:46.653Z,4.80
2018-08-24T02:34:15.225Z,5.10
2018-08-24T02:36:44.317Z,5.43
2018-08-24T02:39:14.522Z,4.70
2018-08-24T02:41:43.078Z,4.57
2018-08-24T02:44:11.945Z,5.30
2018-08-24T02:46:41.323Z,4.57
2018-08-24T02:49:09.830Z,4.70
2018-08-24T02:51:38.287Z,4.40
2018-08-24T02:54:07.129Z,4.23
2018-08-24T02:56:35.578Z,4.70
2018-08-24T02:59:04.181Z,4.30
2018-08-24T03:01:32.700Z,4.33
2018-08-24T03:04:01.576Z,4.33
2018-08-24T03:06:30.116Z,4.70
2018-08-24T03:08:58.566Z,4.10
2018-08-24T03:11:27.086Z,4.40
2018-08-24T03:13:55.562Z,4.73
2018-08-24T03:16:24.038Z,4.93
2018-08-24T03:18:52.535Z,4.80
2018-08-24T03:21:21.011Z,4.90
2018-08-24T03:23:49.492Z,4.97
2018-08-24T03:26:17.989Z,4.10
2018-08-24T03:28:46.437Z,4.50
2018-08-24T03:31:14.914Z,4.77
2018-08-24T03:33:43.382Z,4.63
2018-08-24T03:36:11.870Z,5.30
2018-08-24T03:38:40.324Z,4.63
2018-08-24T03:41:09.853Z,4.40
2018-08-24T03:43:38.260Z,4.60
2018-08-24T03:46:06.778Z,5.00
2018-08-24T03:48:35.227Z,4.87
2018-08-24T03:51:03.717Z,5.30
2018-08-24T03:53:32.194Z,5.20
2018-08-24T03:56:00.646Z,5.17
2018-08-24T03:58:29.095Z,5.20
2018-08-24T04:00:58.740Z,5.87
2018-08-24T04:03:28.090Z,5.60
2018-08-24T04:05:56.605Z,5.53
2018-08-24T04:08:25.044Z,5.40
2018-08-24T04:10:53.521Z,5.30
2018-08-24T04:13:21.976Z,4.93
2018-08-24T04:15:50.446Z,5.77
2018-08-24T04:18:18.884Z,4.90
2018-08-24T04:20:47.349Z,5.57
2018-08-24T04:23:15.798Z,5.63
2018-08-24T04:25:44.296Z,5.60
2018-08-24T04:28:12.712Z,6.10
2018-08-24T04:30:41.328Z,5.47
2018-08-24T04:33:09.817Z,5.63
2018-08-24T04:35:38.310Z,6.03
2018-08-24T04:38:06.935Z,5.27
2018-08-24T04:40:35.380Z,5.87
2018-08-24T04:43:03.893Z,6.07
2018-08-24T04:45:32.437Z,5.60
2018-08-24T04:48:00.890Z,5.60
2018-08-24T04:50:29.316Z,5.73
2018-08-24T04:52:57.783Z,6.20
2018-08-24T04:55:26.235Z,5.67
2018-08-24T04:57:54.689Z,5.73
2018-08-24T05:00:23.150Z,5.50
2018-08-24T05:02:51.613Z,5.57
2018-08-24T05:05:20.093Z,6.43
2018-08-24T05:07:48.558Z,5.93
2018-08-24T05:10:16.987Z,6.23
2018-08-24T05:12:45.593Z,6.70
2018-08-24T05:15:14.038Z,6.37
2018-08-24T05:17:42.485Z,6.70
2018-08-24T05:20:10.910Z,6.30
2018-08-24T05:22:39.367Z,6.20
2018-08-24T05:25:07.842Z,5.70
2018-08-24T05:27:36.329Z,6.67
2018-08-24T05:30:04.880Z,6.10
2018-08-24T05:32:33.358Z,5.47
2018-08-24T05:35:01.791Z,6.00
2018-08-24T05:37:31.164Z,7.03
2018-08-24T05:39:59.586Z,5.40
2018-08-24T05:42:28.066Z,6.83
2018-08-24T05:44:56.504Z,6.53
2018-08-24T05:47:24.953Z,6.50
2018-08-24T05:49:53.392Z,6.17
2018-08-24T05:52:21.846Z,6.67
2018-08-24T05:54:50.261Z,6.67
2018-08-24T05:57:18.691Z,7.10
2018-08-24T05:59:47.201Z,6.67
2018-08-24T06:02:15.657Z,6.60
2018-08-24T06:04:44.118Z,7.07
2018-08-24T06:07:12.570Z,6.70
2018-08-24T06:09:41.026Z,7.03
2018-08-24T06:12:09.512Z,7.27
2018-08-24T06:14:38.005Z,7.17
2018-08-24T06:17:11.809Z,6.90
2018-08-24T06:19:43.588Z,6.60
2018-08-24T06:22:12.170Z,7.17
2018-08-24T06:24:40.586Z,7.37
2018-08-24T06:27:09.018Z,6.90
2018-08-24T06:29:37.543Z,6.80
2018-08-24T06:32:06.052Z,7.57
2018-08-24T06:34:34.506Z,6.53
2018-08-24T06:37:03.021Z,6.40
2018-08-24T06:39:31.392Z,6.70
2018-08-24T06:41:59.900Z,6.10
2018-08-24T06:44:28.257Z,6.00
2018-08-24T06:46:56.714Z,6.30
2018-08-24T06:49:25.180Z,6.07
2018-08-24T06:51:53.603Z,5.60
2018-08-24T06:54:22.099Z,5.70
2018-08-24T06:56:50.547Z,5.70
2018-08-24T06:59:19.017Z,6.40
2018-08-24T07:01:47.518Z,5.70
2018-08-24T07:04:15.982Z,5.60
2018-08-24T07:06:44.493Z,6.13
2018-08-24T07:09:12.976Z,5.67
2018-08-24T07:11:41.443Z,5.83
2018-08-24T07:14:09.889Z,5.17
2018-08-24T07:16:38.362Z,5.50
2018-08-24T07:19:06.833Z,5.17
2018-08-24T07:21:35.579Z,5.97
2018-08-24T07:24:04.041Z,5.73
2018-08-24T07:26:32.477Z,6.27
2018-08-24T07:29:00.971Z,6.17
2018-08-24T07:31:29.422Z,5.87
2018-08-24T07:33:57.906Z,5.40
2018-08-24T07:36:26.354Z,5.37
2018-08-24T07:38:54.830Z,5.63
2018-08-24T07:41:23.410Z,5.60
2018-08-24T07:43:51.849Z,5.67
2018-08-24T07:46:20.319Z,6.67
2018-08-24T07:48:48.766Z,6.13
2018-08-24T07:51:17.223Z,6.20
2018-08-24T07:53:45.729Z,5.97
2018-08-24T07:56:14.159Z,6.20
2018-08-24T07:58:42.703Z,5.70
2018-08-24T08:01:11.139Z,5.03
2018-08-24T08:03:39.593Z,6.13
2018-08-24T08:06:08.096Z,6.77
2018-08-24T08:08:36.555Z,5.80
2018-08-24T08:11:05.303Z,7.13
2018-08-24T08:13:33.782Z,6.23
2018-08-24T08:16:02.209Z,6.77
2018-08-24T08:18:30.709Z,6.77
2018-08-24T08:20:59.114Z,6.80
2018-08-24T08:23:27.570Z,6.87
2018-08-24T08:25:56.015Z,6.87
2018-08-24T08:28:25.032Z,6.47
2018-08-24T08:30:53.495Z,6.00
2018-08-24T08:33:21.947Z,5.97
2018-08-24T08:35:50.420Z,7.10
2018-08-24T08:38:18.926Z,7.13
2018-08-24T08:40:47.391Z,6.27
2018-08-24T08:43:15.802Z,6.37
2018-08-24T08:45:44.278Z,6.70
2018-08-24T08:48:12.695Z,5.70
2018-08-24T08:50:41.248Z,5.73
2018-08-24T08:53:10.247Z,5.40
2018-08-24T08:55:38.664Z,5.43
2018-08-24T08:58:07.408Z,5.00
2018-08-24T09:00:35.861Z,5.90
2018-08-24T09:03:04.378Z,5.77
2018-08-24T09:05:32.858Z,6.57
2018-08-24T09:08:01.290Z,6.73
2018-08-24T09:10:29.835Z,7.00
2018-08-24T09:12:58.391Z,6.93
2018-08-24T09:15:26.820Z,6.47
2018-08-24T09:18:00.645Z,6.03
2018-08-24T09:20:34.372Z,5.17
2018-08-24T09:23:08.218Z,5.70
2018-08-24T09:25:41.910Z,6.90
2018-08-24T09:28:15.787Z,5.33
2018-08-24T09:30:48.090Z,4.90
2018-08-24T09:33:18.633Z,5.30
2018-08-24T09:35:47.094Z,5.03
2018-08-24T09:38:15.853Z,4.90
2018-08-24T09:40:49.539Z,4.57
2018-08-24T09:43:23.705Z,5.00
2018-08-24T09:45:52.146Z,4.90
2018-08-24T09:48:36.832Z,4.07
2018-08-24T09:51:10.472Z,4.97
2018-08-24T09:53:44.630Z,4.70
2018-08-24T09:56:13.086Z,4.80
2018-08-24T09:58:41.579Z,4.10
2018-08-24T10:03:20.022Z,4.00
2018-08-24T10:05:53.838Z,3.55
2018-08-24T10:08:27.699Z,3.53
2018-08-24T10:10:56.161Z,3.35
2018-08-24T10:13:24.655Z,3.40
2018-08-24T10:15:53.102Z,2.83
2018-08-24T10:18:21.589Z,2.87
2018-08-24T10:20:50.045Z,3.15
2018-08-24T10:23:18.470Z,2.72
2018-08-24T10:25:46.909Z,2.62
2018-08-24T10:28:15.355Z,2.30
2018-08-24T10:30:43.822Z,2.17
2018-08-24T10:33:12.238Z,2.00
2018-08-24T10:35:40.699Z,2.22
2018-08-24T10:38:09.125Z,1.95
2018-08-24T10:40:37.578Z,1.90
2018-08-24T10:43:06.070Z,1.62
2018-08-24T10:45:35.134Z,1.60
2018-08-24T10:48:03.580Z,1.77
2018-08-24T10:50:32.040Z,1.70
2018-08-24T10:53:00.658Z,1.70
2018-08-24T10:55:29.236Z,1.87
2018-08-24T10:57:57.742Z,1.98
2018-08-24T11:00:26.237Z,2.02
2018-08-24T11:02:54.678Z,2.08
2018-08-24T11:05:23.396Z,2.20
2018-08-24T11:07:51.908Z,2.50
2018-08-24T11:10:20.299Z,2.40
2018-08-24T11:12:48.712Z,2.45
2018-08-24T11:15:17.177Z,2.67
2018-08-24T11:17:50.909Z,2.77
2018-08-24T11:20:19.390Z,2.67
2018-08-24T11:22:47.826Z,2.83
2018-08-24T11:25:16.295Z,2.67
2018-08-24T11:27:44.764Z,2.90
2018-08-24T11:30:13.236Z,3.00
2018-08-24T11:32:41.660Z,3.27
2018-08-24T11:35:10.132Z,3.08
2018-08-24T11:37:38.576Z,3.52
2018-08-24T11:40:07.082Z,3.75
2018-08-24T11:42:35.826Z,4.53
2018-08-24T11:45:04.382Z,3.15
2018-08-24T11:47:32.813Z,3.30
2018-08-24T11:50:01.757Z,3.10
2018-08-24T11:52:30.201Z,3.00
2018-08-24T11:54:58.638Z,3.60
2018-08-24T11:57:27.161Z,3.10
2018-08-24T11:59:55.672Z,3.00
2018-08-24T12:02:24.107Z,2.92
2018-08-24T12:04:52.594Z,3.58
2018-08-24T12:07:21.042Z,3.42
2018-08-24T12:09:49.558Z,3.10
2018-08-24T12:12:18.101Z,2.75
2018-08-24T12:14:46.849Z,2.80
2018-08-24T12:17:20.457Z,2.85
2018-08-24T12:19:49.365Z,2.52
2018-08-24T12:22:17.803Z,2.45
2018-08-24T12:24:47.630Z,2.62
2018-08-24T12:27:16.125Z,2.00
2018-08-24T12:29:44.560Z,2.20
2018-08-24T12:32:12.996Z,2.33
2018-08-24T12:34:41.665Z,2.22
2018-08-24T12:37:11.652Z,2.15
2018-08-24T12:39:40.706Z,2.33
2018-08-24T12:42:10.408Z,1.98
2018-08-24T12:44:39.597Z,2.02
2018-08-24T12:47:08.459Z,2.02
2018-08-24T12:49:36.891Z,2.37
2018-08-24T12:52:05.440Z,1.98
2018-08-24T12:54:33.906Z,2.17
2018-08-24T12:57:02.923Z,2.47
2018-08-24T12:59:31.367Z,2.30
2018-08-24T13:01:59.944Z,2.20
2018-08-24T13:04:28.414Z,2.52
2018-08-24T13:06:56.883Z,2.10
2018-08-24T13:09:25.426Z,2.15
2018-08-24T13:11:53.882Z,2.27
2018-08-24T13:14:22.383Z,2.47
2018-08-24T13:16:50.860Z,2.10
2018-08-24T13:19:19.294Z,2.63
2018-08-24T13:21:47.769Z,2.30
2018-08-24T13:24:16.223Z,2.22
2018-08-24T13:26:44.693Z,2.40
2018-08-24T13:29:13.147Z,2.10
2018-08-24T13:31:41.644Z,1.90
2018-08-24T13:34:10.430Z,2.10
2018-08-24T13:36:39.021Z,1.90
2018-08-24T13:39:08.258Z,1.90
2018-08-24T13:41:37.161Z,2.25
2018-08-24T13:44:05.784Z,2.00
2018-08-24T13:46:34.249Z,2.30
2018-08-24T13:49:02.694Z,2.10
2018-08-24T13:55:34.529Z,2.37
2018-08-24T13:58:03.160Z,2.45
2018-08-24T14:00:31.591Z,2.42
2018-08-24T14:03:00.078Z,2.47
2018-08-24T14:05:28.538Z,2.50
2018-08-24T14:07:56.982Z,2.60
2018-08-24T14:10:25.442Z,2.63
2018-08-24T14:12:53.946Z,2.50
2018-08-24T14:15:22.384Z,2.60
2018-08-24T14:17:52.784Z,2.40
2018-08-24T14:20:22.338Z,2.83
2018-08-24T14:22:51.075Z,2.90
2018-08-24T14:25:19.934Z,3.80
2018-08-24T14:27:48.839Z,2.70
2018-08-24T14:30:17.301Z,2.90
2018-08-24T14:32:46.231Z,2.70
2018-08-24T14:35:14.678Z,2.50
2018-08-24T14:37:43.126Z,2.43
2018-08-24T14:40:11.617Z,2.67
2018-08-24T14:42:40.038Z,2.30
2018-08-24T14:45:08.557Z,2.73
2018-08-24T14:47:37.005Z,3.20
2018-08-24T14:50:06.050Z,3.10
2018-08-24T14:52:34.505Z,2.60
2018-08-24T14:55:02.986Z,2.70
2018-08-24T14:57:31.554Z,3.00
2018-08-24T14:59:59.939Z,4.57
2018-08-24T15:02:28.369Z,2.80
2018-08-24T15:04:56.850Z,3.00
2018-08-24T15:07:25.294Z,3.00
2018-08-24T15:09:53.843Z,2.77
2018-08-24T15:12:22.237Z,3.10
2018-08-24T15:14:50.742Z,3.37
2018-08-24T15:17:19.407Z,2.90
2018-08-24T15:19:47.931Z,3.20
2018-08-24T15:22:16.386Z,3.20
2018-08-24T15:24:44.889Z,3.20
2018-08-24T15:27:13.369Z,3.17
2018-08-24T15:29:41.888Z,3.40
2018-08-24T15:32:10.307Z,2.97
2018-08-24T15:34:39.413Z,2.60
2018-08-24T15:37:07.903Z,2.77
2018-08-24T15:39:36.447Z,2.60
2018-08-24T15:42:04.962Z,2.57
2018-08-24T15:44:33.521Z,3.00
2018-08-24T15:47:02.006Z,2.47
2018-08-24T15:49:30.501Z,2.80
2018-08-24T15:51:59.064Z,2.77
2018-08-24T15:54:28.107Z,2.87
2018-08-24T15:56:56.654Z,3.40
2018-08-24T15:59:25.166Z,3.43
2018-08-24T16:01:53.615Z,3.63
2018-08-24T16:04:22.190Z,3.70
2018-08-24T16:06:50.999Z,3.60
2018-08-24T16:09:19.500Z,3.70
2018-08-24T16:11:48.122Z,3.80
2018-08-24T16:14:16.738Z,4.43
2018-08-24T16:16:45.266Z,4.60
2018-08-24T16:19:13.738Z,4.40
2018-08-24T16:21:42.527Z,4.80
2018-08-24T16:24:11.179Z,4.80
2018-08-24T16:26:39.907Z,4.63
2018-08-24T16:29:08.709Z,4.70
2018-08-24T16:31:37.553Z,4.20
2018-08-24T16:34:06.289Z,4.97
2018-08-24T16:36:34.941Z,4.50
2018-08-24T16:39:04.113Z,5.13
2018-08-24T16:41:32.769Z,4.60
2018-08-24T16:44:01.336Z,4.63
2018-08-24T16:46:29.977Z,4.40
2018-08-24T16:48:58.625Z,4.97
2018-08-24T16:51:27.349Z,4.63
2018-08-24T16:53:57.321Z,5.03
2018-08-24T16:56:26.438Z,5.50
2018-08-24T16:58:55.187Z,5.27
2018-08-24T17:01:24.023Z,4.93
2018-08-24T17:03:54.059Z,5.30
2018-08-24T17:06:22.449Z,5.30
2018-08-24T17:08:50.934Z,5.17
2018-08-24T17:11:19.386Z,5.67
2018-08-24T17:13:47.924Z,5.10
2018-08-24T17:16:16.326Z,5.20
2018-08-24T17:18:45.248Z,5.03
2018-08-24T17:21:13.723Z,5.37
2018-08-24T17:23:42.168Z,4.50
2018-08-24T17:26:10.656Z,4.90
2018-08-24T17:28:39.135Z,6.03
2018-08-24T17:31:07.593Z,5.17
2018-08-24T17:33:36.042Z,5.73
2018-08-24T17:36:04.585Z,5.63
2018-08-24T17:38:34.520Z,5.20
2018-08-24T17:41:03.068Z,5.90
2018-08-24T17:43:32.646Z,4.90
2018-08-24T17:46:01.129Z,5.40
2018-08-24T17:48:29.787Z,5.53
2018-08-24T17:50:58.339Z,5.23
2018-08-24T17:53:26.808Z,6.20
2018-08-24T17:55:55.421Z,6.00
2018-08-24T17:58:24.070Z,5.37
2018-08-24T18:00:52.654Z,5.40
2018-08-24T18:03:21.370Z,6.47
2018-08-24T18:05:49.851Z,5.63
2018-08-24T18:08:18.498Z,5.30
2018-08-24T18:10:47.061Z,5.63
2018-08-24T18:13:15.686Z,6.40
2018-08-24T18:15:44.256Z,5.67
2018-08-24T18:18:12.734Z,5.80
2018-08-24T18:20:41.227Z,4.80
2018-08-24T18:23:09.920Z,6.27
2018-08-24T18:25:38.645Z,6.30
2018-08-24T18:28:07.503Z,5.57
2018-08-24T18:30:36.271Z,5.60
2018-08-24T18:33:05.212Z,5.77
2018-08-24T18:35:33.792Z,5.43
2018-08-24T18:38:02.594Z,6.03
2018-08-24T18:40:31.525Z,5.97
2018-08-24T18:43:00.117Z,6.33
2018-08-24T18:45:28.703Z,5.77
2018-08-24T18:47:57.366Z,6.33
2018-08-24T18:50:26.439Z,6.10
2018-08-24T18:52:55.988Z,5.63
2018-08-24T18:55:24.453Z,5.50
2018-08-24T18:57:54.242Z,5.90
2018-08-24T19:00:23.317Z,5.83
2018-08-24T19:02:53.214Z,6.27
2018-08-24T19:05:21.675Z,5.63
2018-08-24T19:07:54.383Z,5.60
2018-08-24T19:10:23.354Z,5.93
2018-08-24T19:12:52.357Z,6.20
2018-08-24T19:15:20.795Z,6.40
2018-08-24T19:17:54.626Z,6.03
2018-08-24T19:20:28.396Z,5.93
2018-08-24T19:22:56.985Z,5.87
2018-08-24T19:25:25.482Z,6.20
2018-08-24T19:27:59.245Z,6.20
2018-08-24T19:30:33.122Z,5.80
2018-08-24T19:33:02.536Z,6.00
2018-08-24T19:35:31.388Z,6.00
2018-08-24T19:37:59.997Z,6.30
2018-08-24T19:40:33.838Z,5.97
2018-08-24T19:43:02.535Z,6.90
2018-08-24T19:45:31.093Z,6.47
2018-08-24T19:48:04.994Z,6.50
2018-08-24T19:50:33.515Z,6.20
2018-08-24T19:53:03.462Z,5.70
2018-08-24T19:55:31.909Z,6.07
2018-08-24T19:58:05.933Z,6.03
2018-08-24T20:00:34.434Z,6.17
2018-08-24T20:03:03.031Z,6.30
2018-08-24T20:05:31.505Z,6.30
2018-08-24T20:08:05.362Z,6.63
2018-08-24T20:10:33.822Z,6.23
2018-08-24T20:13:02.524Z,5.97
2018-08-24T20:15:36.486Z,6.00
2018-08-24T20:18:05.430Z,6.53
2018-08-24T20:20:33.915Z,6.60
2018-08-24T20:23:02.505Z,5.50
2018-08-24T20:25:31.123Z,6.33
2018-08-24T20:28:00.046Z,5.80
2018-08-24T20:30:28.518Z,6.47
2018-08-24T20:32:57.148Z,5.97
2018-08-24T20:35:26.035Z,6.57
2018-08-24T20:37:54.502Z,5.80
2018-08-24T20:40:23.091Z,6.50
2018-08-24T20:42:51.727Z,7.00
2018-08-24T20:45:20.505Z,6.93
2018-08-24T20:47:49.038Z,6.27
2018-08-24T20:50:17.495Z,6.27
2018-08-24T20:52:47.773Z,6.10
2018-08-24T20:55:16.314Z,6.50
2018-08-24T20:57:44.846Z,6.03
2018-08-24T21:00:13.354Z,5.57
2018-08-24T21:02:41.902Z,6.33
2018-08-24T21:05:10.534Z,6.00
2018-08-24T21:07:39.608Z,6.33
2018-08-24T21:10:08.223Z,6.53
2018-08-24T21:12:36.863Z,6.57
2018-08-24T21:15:05.592Z,7.30
2018-08-24T21:17:34.223Z,6.73
2018-08-24T21:20:02.922Z,6.53
2018-08-24T21:22:31.725Z,6.70
2018-08-24T21:25:00.333Z,6.47
2018-08-24T21:27:29.238Z,6.70
2018-08-24T21:29:57.920Z,6.07
2018-08-24T21:32:26.475Z,6.77
2018-08-24T21:34:55.011Z,6.27
2018-08-24T21:37:23.509Z,5.93
2018-08-24T21:39:51.986Z,6.17
2018-08-24T21:42:20.498Z,5.83
2018-08-24T21:44:49.118Z,6.27
2018-08-24T21:47:17.600Z,6.43
2018-08-24T21:49:46.042Z,6.33
2018-08-24T21:52:14.608Z,6.73
2018-08-24T21:54:43.060Z,6.67
2018-08-24T21:57:11.571Z,5.97
2018-08-24T21:59:40.034Z,6.07
2018-08-24T22:02:08.617Z,5.93
2018-08-24T22:04:37.065Z,6.20
2018-08-24T22:07:05.566Z,6.27
2018-08-24T22:09:34.013Z,5.57
2018-08-24T22:12:02.451Z,6.33
2018-08-24T22:14:30.966Z,5.77
2018-08-24T22:16:59.434Z,5.63
2018-08-24T22:19:27.845Z,6.37
2018-08-24T22:21:56.422Z,5.80
2018-08-24T22:24:24.896Z,5.67
2018-08-24T22:26:53.369Z,5.77
2018-08-24T22:29:21.869Z,6.13
2018-08-24T22:31:50.350Z,5.83
2018-08-24T22:34:18.819Z,5.80
2018-08-24T22:36:47.301Z,5.77
2018-08-24T22:39:15.804Z,6.53
2018-08-24T22:41:44.276Z,5.60
2018-08-24T22:44:12.794Z,5.00
2018-08-24T22:46:41.280Z,6.07
2018-08-24T22:49:09.763Z,5.50
2018-08-24T22:51:38.251Z,5.67
2018-08-24T22:54:06.746Z,5.93
2018-08-24T22:56:35.253Z,5.53
2018-08-24T22:59:03.848Z,6.10
2018-08-24T23:01:32.338Z,4.73
2018-08-24T23:04:00.813Z,5.77
2018-08-24T23:06:29.322Z,5.10
2018-08-24T23:08:57.817Z,5.67
2018-08-24T23:11:26.296Z,5.37
2018-08-24T23:13:54.807Z,5.37
2018-08-24T23:16:23.274Z,5.40
2018-08-24T23:18:51.799Z,5.60
2018-08-24T23:21:20.278Z,5.27
2018-08-24T23:23:48.754Z,6.00
2018-08-24T23:26:17.220Z,5.43
2018-08-24T23:28:45.723Z,5.00
2018-08-24T23:31:14.181Z,5.40
2018-08-24T23:33:42.686Z,5.20
2018-08-24T23:36:11.189Z,5.20
2018-08-24T23:38:39.704Z,5.27
2018-08-24T23:41:08.182Z,4.80
2018-08-24T23:43:36.705Z,4.90
2018-08-24T23:46:05.170Z,5.10
2018-08-24T23:48:33.742Z,5.30
2018-08-24T23:51:02.187Z,5.07
2018-08-24T23:53:30.687Z,5.13
2018-08-24T23:55:59.164Z,4.87
2018-08-24T23:58:27.651Z,5.00
